Time;durP1;ratioP1;P1;durP2;ratioP2;P2;SDS_P1;SDS_P2;PMS_P1;PMS_P2;Temp;Humidity;BMP_temperature;BMP_pressure;BME280_temperature;BME280_humidity;BME280_pressure;Samples;Min_cycle;Max_cycle;Signal;HPM_P1;HPM_P2
2024/04/20 00:00:30;;;;;;;15.57;7.88;;;;;;;;;;5349390;26;20008;-72
2024/04/20 00:02:57;;;;;;;11.85;7.00;;;;;;;;;;5367756;26;20004;-72
2024/04/20 00:05:24;;;;;;;13.68;7.25;;;;;;;;;;5377409;26;20000;-72
2024/04/20 00:07:51;;;;;;;10.70;6.47;;;;;;;;;;5377430;26;20007;-72
2024/04/20 00:10:18;;;;;;;12.43;7.25;;;;;;;;;;5353117;26;20004;-72
2024/04/20 00:12:45;;;;;;;14.05;8.05;;;;;;;;;;5358726;26;20001;-72
2024/04/20 00:15:12;;;;;;;13.23;7.30;;;;;;;;;;5366004;26;20473;-72
2024/04/20 00:17:39;;;;;;;11.00;7.32;;;;;;;;;;5360754;26;20044;-72
2024/04/20 00:20:07;;;;;;;10.82;7.00;;;;;;;;;;5377084;26;20019;-72
2024/04/20 00:22:33;;;;;;;13.32;7.63;;;;;;;;;;5376774;26;20352;-72
2024/04/20 00:25:00;;;;;;;14.43;7.72;;;;;;;;;;5346553;26;20001;-72
2024/04/20 00:27:27;;;;;;;16.38;7.30;;;;;;;;;;5361082;26;20000;-72
2024/04/20 00:29:54;;;;;;;14.18;7.13;;;;;;;;;;5369653;26;20016;-72
2024/04/20 00:32:21;;;;;;;14.50;7.03;;;;;;;;;;5361061;26;20051;-72
2024/04/20 00:34:47;;;;;;;11.40;7.47;;;;;;;;;;5368302;26;20009;-72
2024/04/20 00:37:14;;;;;;;13.98;6.85;;;;;;;;;;5355783;26;20401;-72
2024/04/20 00:39:41;;;;;;;16.10;8.07;;;;;;;;;;5374323;26;20479;-72
2024/04/20 00:42:08;;;;;;;15.07;8.60;;;;;;;;;;5355697;26;20000;-72
2024/04/20 00:44:36;;;;;;;14.63;8.55;;;;;;;;;;5376633;26;20214;-72
2024/04/20 00:47:06;;;;;;;14.82;9.00;;;;;;;;;;5376310;26;20001;-72
2024/04/20 00:49:33;;;;;;;20.13;10.05;;;;;;;;;;5375917;26;20023;-72
2024/04/20 00:52:04;;;;;;;18.30;10.68;;;;;;;;;;5376323;26;20019;-72
2024/04/20 00:54:35;;;;;;;15.25;10.70;;;;;;;;;;5376709;26;20004;-72
2024/04/20 00:57:04;;;;;;;20.10;11.68;;;;;;;;;;5356249;26;20102;-72
2024/04/20 00:59:31;;;;;;;;;;;;;;;;;;5375537;26;20000;-72
2024/04/20 01:01:58;;;;;;;20.42;11.43;;;;;;;;;;5375260;26;20343;-72
2024/04/20 01:04:25;;;;;;;20.85;12.05;;;;;;;;;;5375705;26;20043;-72
2024/04/20 01:06:52;;;;;;;20.25;11.80;;;;;;;;;;5354122;26;20012;-72
2024/04/20 01:09:20;;;;;;;21.73;12.57;;;;;;;;;;5341582;26;20078;-72
2024/04/20 01:11:46;;;;;;;22.63;12.48;;;;;;;;;;5363986;26;20008;-72
2024/04/20 01:14:13;;;;;;;21.67;13.35;;;;;;;;;;5365314;26;20436;-72
2024/04/20 01:16:40;;;;;;;24.90;12.75;;;;;;;;;;5341027;26;20090;-73
2024/04/20 01:19:22;;;;;;;21.48;11.85;;;;;;;;;;5353734;26;20000;-72
2024/04/20 01:21:50;;;;;;;22.70;12.40;;;;;;;;;;5372729;26;20248;-72
2024/04/20 01:24:22;;;;;;;24.50;11.98;;;;;;;;;;5336432;26;20352;-72
2024/04/20 01:26:48;;;;;;;22.45;12.07;;;;;;;;;;5375412;26;20008;-72
2024/04/20 01:29:15;;;;;;;20.35;12.70;;;;;;;;;;5376269;26;20074;-72
2024/04/20 01:31:42;;;;;;;21.02;13.00;;;;;;;;;;5376018;26;20454;-72
2024/04/20 01:34:09;;;;;;;23.05;11.40;;;;;;;;;;5369731;26;20308;-72
2024/04/20 01:36:36;;;;;;;17.60;12.88;;;;;;;;;;5351335;26;20000;-72
2024/04/20 01:39:03;;;;;;;22.75;12.10;;;;;;;;;;5359222;26;20086;-72
2024/04/20 01:41:30;;;;;;;23.75;12.18;;;;;;;;;;5346418;26;20000;-72
2024/04/20 01:43:57;;;;;;;18.08;11.68;;;;;;;;;;5376537;26;20427;-72
2024/04/20 01:46:23;;;;;;;20.83;12.55;;;;;;;;;;5375168;26;25674;-72
2024/04/20 01:48:50;;;;;;;19.08;11.52;;;;;;;;;;5376418;26;20358;-72
2024/04/20 01:51:17;;;;;;;20.63;12.50;;;;;;;;;;5374999;26;20960;-72
2024/04/20 01:53:44;;;;;;;18.20;12.55;;;;;;;;;;5376528;26;20000;-72
2024/04/20 01:56:11;;;;;;;22.23;12.77;;;;;;;;;;5375220;26;20000;-72
2024/04/20 01:58:37;;;;;;;23.83;12.40;;;;;;;;;;5376273;26;20000;-72
2024/04/20 02:01:04;;;;;;;23.08;13.38;;;;;;;;;;5373787;26;20004;-72
2024/04/20 02:03:31;;;;;;;24.13;12.82;;;;;;;;;;5374214;26;20015;-72
2024/04/20 02:05:58;;;;;;;21.55;12.40;;;;;;;;;;5375708;26;20019;-72
2024/04/20 02:08:25;;;;;;;24.50;13.70;;;;;;;;;;5375684;26;20326;-72
2024/04/20 02:10:52;;;;;;;24.90;12.73;;;;;;;;;;5375190;26;19997;-72
2024/04/20 02:13:18;;;;;;;27.27;13.40;;;;;;;;;;5375227;26;20000;-72
2024/04/20 02:15:45;;;;;;;30.35;14.35;;;;;;;;;;5374923;26;20439;-72
2024/04/20 02:18:12;;;;;;;22.73;12.30;;;;;;;;;;5375310;26;20389;-72
2024/04/20 02:20:39;;;;;;;23.05;12.82;;;;;;;;;;5375994;26;20000;-72
2024/04/20 02:23:06;;;;;;;16.70;11.70;;;;;;;;;;5375210;26;20612;-72
2024/04/20 02:25:33;;;;;;;18.75;12.15;;;;;;;;;;5375133;26;20456;-72
2024/04/20 02:28:00;;;;;;;22.27;10.88;;;;;;;;;;5375305;26;19997;-72
2024/04/20 02:30:27;;;;;;;17.40;10.57;;;;;;;;;;5374670;26;20039;-72
2024/04/20 02:32:53;;;;;;;24.10;11.50;;;;;;;;;;5375467;26;19997;-72
2024/04/20 02:35:20;;;;;;;18.42;10.93;;;;;;;;;;5375088;26;20012;-72
2024/04/20 02:37:47;;;;;;;17.75;10.25;;;;;;;;;;5375310;26;20027;-72
2024/04/20 02:40:14;;;;;;;18.85;10.48;;;;;;;;;;5375121;26;20000;-72
2024/04/20 02:42:41;;;;;;;20.42;10.50;;;;;;;;;;5375239;26;20008;-72
2024/04/20 02:45:15;;;;;;;18.08;10.00;;;;;;;;;;5375297;26;20026;-73
2024/04/20 02:47:43;;;;;;;26.35;10.40;;;;;;;;;;5375477;26;20001;-73
2024/04/20 02:50:10;;;;;;;20.73;10.33;;;;;;;;;;5374796;26;20028;-72
2024/04/20 02:52:37;;;;;;;20.92;9.40;;;;;;;;;;5374685;26;20015;-73
2024/04/20 02:55:04;;;;;;;18.42;9.68;;;;;;;;;;5375318;26;20004;-72
2024/04/20 02:57:31;;;;;;;15.40;9.20;;;;;;;;;;5374876;26;20454;-72
2024/04/20 02:59:58;;;;;;;19.60;9.98;;;;;;;;;;5375529;26;20326;-72
2024/04/20 03:02:25;;;;;;;19.88;9.45;;;;;;;;;;5372676;26;20019;-72
2024/04/20 03:04:51;;;;;;;21.25;9.63;;;;;;;;;;5375088;26;20036;-72
2024/04/20 03:07:18;;;;;;;22.40;9.38;;;;;;;;;;5374018;26;20001;-72
2024/04/20 03:09:45;;;;;;;26.23;10.35;;;;;;;;;;5375583;26;20000;-72
2024/04/20 03:12:14;;;;;;;23.27;9.57;;;;;;;;;;5373934;26;19997;-72
2024/04/20 03:14:40;;;;;;;;;;;;;;;;;;5378926;26;20004;-72
2024/04/20 03:17:07;;;;;;;15.30;9.35;;;;;;;;;;5377113;26;19926;-72
2024/04/20 03:19:34;;;;;;;22.83;9.80;;;;;;;;;;5378790;26;20437;-72
2024/04/20 03:22:01;;;;;;;18.52;9.75;;;;;;;;;;5378037;26;20336;-72
2024/04/20 03:24:28;;;;;;;18.70;8.73;;;;;;;;;;5378139;26;20004;-72
2024/04/20 03:26:55;;;;;;;17.42;8.15;;;;;;;;;;5377650;26;20008;-72
2024/04/20 03:29:26;;;;;;;15.18;8.30;;;;;;;;;;5377501;26;20012;-72
2024/04/20 03:31:52;;;;;;;17.05;7.70;;;;;;;;;;5377441;26;20073;-72
2024/04/20 03:34:19;;;;;;;15.80;8.13;;;;;;;;;;5378078;26;20116;-72
2024/04/20 03:36:46;;;;;;;20.33;8.43;;;;;;;;;;5377663;26;20367;-72
2024/04/20 03:39:15;;;;;;;17.33;8.32;;;;;;;;;;5377656;26;20015;-72
2024/04/20 03:41:43;;;;;;;17.58;7.45;;;;;;;;;;5377465;26;20009;-72
2024/04/20 03:44:10;;;;;;;20.38;7.82;;;;;;;;;;5377849;26;20019;-72
2024/04/20 03:46:37;;;;;;;17.85;7.80;;;;;;;;;;5377437;26;20410;-72
2024/04/20 03:49:04;;;;;;;16.83;7.13;;;;;;;;;;5377272;26;20015;-73
2024/04/20 03:51:31;;;;;;;13.75;7.05;;;;;;;;;;5377204;26;20961;-72
2024/04/20 03:54:01;;;;;;;17.75;7.65;;;;;;;;;;5377737;26;20004;-72
2024/04/20 03:56:28;;;;;;;16.35;6.88;;;;;;;;;;5376873;26;20016;-72
2024/04/20 03:58:55;;;;;;;19.02;6.93;;;;;;;;;;5378492;26;20017;-72
2024/04/20 04:01:22;;;;;;;13.30;6.47;;;;;;;;;;5376234;26;19996;-73
2024/04/20 04:03:48;;;;;;;19.08;7.15;;;;;;;;;;5376591;26;20019;-73
2024/04/20 04:06:15;;;;;;;20.48;7.45;;;;;;;;;;5376171;26;20016;-72
2024/04/20 04:08:42;;;;;;;17.70;7.35;;;;;;;;;;5377341;26;20560;-72
2024/04/20 04:11:09;;;;;;;23.83;7.38;;;;;;;;;;5376854;26;20454;-73
2024/04/20 04:13:37;;;;;;;16.00;7.25;;;;;;;;;;5377577;26;20012;-72
2024/04/20 04:16:05;;;;;;;15.82;7.35;;;;;;;;;;5376387;26;20005;-72
2024/04/20 04:18:32;;;;;;;15.05;6.72;;;;;;;;;;5377102;26;20482;-72
2024/04/20 04:20:59;;;;;;;15.38;6.53;;;;;;;;;;5376685;26;20004;-72
2024/04/20 04:23:26;;;;;;;18.35;6.03;;;;;;;;;;5377360;26;20019;-72
2024/04/20 04:25:53;;;;;;;14.40;6.15;;;;;;;;;;5375446;26;20401;-72
2024/04/20 04:28:19;;;;;;;15.77;6.45;;;;;;;;;;5377048;26;20008;-72
2024/04/20 04:30:46;;;;;;;16.30;5.95;;;;;;;;;;5376670;26;20004;-72
2024/04/20 04:33:13;;;;;;;22.30;7.15;;;;;;;;;;5376527;26;20000;-72
2024/04/20 04:35:40;;;;;;;22.55;6.05;;;;;;;;;;5377125;26;20435;-73
2024/04/20 04:38:07;;;;;;;20.75;7.50;;;;;;;;;;5376836;26;20004;-73
2024/04/20 04:40:34;;;;;;;16.52;5.63;;;;;;;;;;5377058;26;20011;-73
2024/04/20 04:43:01;;;;;;;23.38;5.93;;;;;;;;;;5377095;26;20338;-72
2024/04/20 04:45:29;;;;;;;13.45;5.30;;;;;;;;;;5376419;26;20004;-72
2024/04/20 04:47:56;;;;;;;23.13;6.40;;;;;;;;;;5377006;26;20001;-72
2024/04/20 04:50:22;;;;;;;18.95;4.75;;;;;;;;;;5376393;26;20004;-72
2024/04/20 04:52:49;;;;;;;16.77;4.63;;;;;;;;;;5376553;26;20011;-72
2024/04/20 04:55:16;;;;;;;12.68;4.60;;;;;;;;;;5376678;26;20004;-73
2024/04/20 04:57:43;;;;;;;14.88;5.05;;;;;;;;;;5377173;26;20000;-73
2024/04/20 05:00:10;;;;;;;13.38;4.47;;;;;;;;;;5376823;26;20004;-72
2024/04/20 05:02:37;;;;;;;15.68;4.47;;;;;;;;;;5374817;26;20028;-73
2024/04/20 05:05:04;;;;;;;9.70;4.47;;;;;;;;;;5376738;26;20511;-72
2024/04/20 05:07:31;;;;;;;13.63;4.30;;;;;;;;;;5376157;26;20004;-72
2024/04/20 05:09:58;;;;;;;12.95;4.05;;;;;;;;;;5377159;26;20011;-72
2024/04/20 05:12:25;;;;;;;11.80;4.47;;;;;;;;;;5375493;26;20047;-72
2024/04/20 05:14:52;;;;;;;20.20;3.90;;;;;;;;;;5376966;26;20439;-73
2024/04/20 05:17:19;;;;;;;11.23;3.80;;;;;;;;;;5375407;26;20016;-72
2024/04/20 05:19:46;;;;;;;9.43;3.83;;;;;;;;;;5376810;26;20040;-72
2024/04/20 05:22:13;;;;;;;13.75;3.80;;;;;;;;;;5375884;26;20000;-72
2024/04/20 05:24:40;;;;;;;12.73;3.72;;;;;;;;;;5376955;26;20027;-72
2024/04/20 05:27:06;;;;;;;14.05;3.78;;;;;;;;;;5375355;26;20054;-72
2024/04/20 05:29:33;;;;;;;17.30;3.72;;;;;;;;;;5376566;26;20052;-72
2024/04/20 05:32:00;;;;;;;9.98;3.70;;;;;;;;;;5375645;26;20000;-72
2024/04/20 05:34:27;;;;;;;11.27;3.53;;;;;;;;;;5376460;26;20012;-72
2024/04/20 05:36:54;;;;;;;12.52;3.95;;;;;;;;;;5376120;26;20528;-72
2024/04/20 05:39:21;;;;;;;10.68;3.00;;;;;;;;;;5375833;26;20031;-72
2024/04/20 05:41:47;;;;;;;13.35;2.78;;;;;;;;;;5375673;26;20008;-72
2024/04/20 05:44:14;;;;;;;13.43;3.08;;;;;;;;;;5375999;26;20019;-72
2024/04/20 05:46:41;;;;;;;10.57;3.60;;;;;;;;;;5375690;26;20022;-72
2024/04/20 05:49:08;;;;;;;12.55;3.47;;;;;;;;;;5375511;26;20004;-72
2024/04/20 05:51:34;;;;;;;13.63;3.45;;;;;;;;;;5375537;26;20041;-72
2024/04/20 05:54:01;;;;;;;13.23;3.15;;;;;;;;;;5376228;26;20004;-73
2024/04/20 05:56:28;;;;;;;12.88;3.08;;;;;;;;;;5375426;26;20015;-72
2024/04/20 05:58:55;;;;;;;12.57;3.10;;;;;;;;;;5376362;26;20461;-73
2024/04/20 06:01:23;;;;;;;16.45;3.63;;;;;;;;;;5369216;26;20019;-72
2024/04/20 06:03:50;;;;;;;12.50;3.28;;;;;;;;;;5374765;26;20012;-73
2024/04/20 06:06:17;;;;;;;14.07;2.85;;;;;;;;;;5374249;26;20000;-73
2024/04/20 06:08:43;;;;;;;18.48;2.70;;;;;;;;;;5375481;26;20011;-72
2024/04/20 06:11:11;;;;;;;11.63;2.83;;;;;;;;;;5374349;26;20023;-73
2024/04/20 06:13:38;;;;;;;17.80;2.83;;;;;;;;;;5375698;26;20004;-73
2024/04/20 06:16:06;;;;;;;14.35;2.60;;;;;;;;;;5374698;26;20011;-72
2024/04/20 06:18:33;;;;;;;12.37;2.73;;;;;;;;;;5345457;26;20008;-72
2024/04/20 06:20:59;;;;;;;11.38;2.75;;;;;;;;;;5375352;26;20317;-72
2024/04/20 06:23:26;;;;;;;11.55;3.20;;;;;;;;;;5375078;26;20044;-72
2024/04/20 06:25:53;;;;;;;12.43;3.70;;;;;;;;;;5374474;26;20635;-73
2024/04/20 06:28:20;;;;;;;14.63;3.58;;;;;;;;;;5375196;26;20019;-72
2024/04/20 06:30:48;;;;;;;14.85;2.92;;;;;;;;;;5375590;26;20040;-72
2024/04/20 06:33:15;;;;;;;9.73;3.38;;;;;;;;;;5372233;26;20073;-72
2024/04/20 06:35:42;;;;;;;13.75;3.15;;;;;;;;;;5385353;26;20031;-73
2024/04/20 06:38:09;;;;;;;14.43;2.72;;;;;;;;;;5374936;26;20015;-72
2024/04/20 06:40:35;;;;;;;15.05;3.65;;;;;;;;;;5375030;26;20032;-72
2024/04/20 06:43:02;;;;;;;13.93;2.67;;;;;;;;;;5375614;26;20000;-72
2024/04/20 06:45:29;;;;;;;16.50;2.42;;;;;;;;;;5375129;26;20039;-73
2024/04/20 06:47:57;;;;;;;20.95;2.83;;;;;;;;;;5374130;26;20036;-72
2024/04/20 06:50:24;;;;;;;13.07;3.53;;;;;;;;;;5373950;26;20548;-72
2024/04/20 06:52:51;;;;;;;12.95;3.53;;;;;;;;;;5375045;26;20028;-72
2024/04/20 06:55:18;;;;;;;12.15;2.55;;;;;;;;;;5364978;26;20023;-72
2024/04/20 06:57:44;;;;;;;10.82;2.30;;;;;;;;;;5373400;26;20016;-73
2024/04/20 07:00:12;;;;;;;9.73;2.60;;;;;;;;;;5373027;26;20017;-73
2024/04/20 07:02:38;;;;;;;10.32;2.47;;;;;;;;;;5371743;26;20481;-73
2024/04/20 07:05:06;;;;;;;11.10;3.35;;;;;;;;;;5371046;26;20015;-73
2024/04/20 07:07:34;;;;;;;10.73;2.85;;;;;;;;;;5358217;26;20015;-73
2024/04/20 07:10:02;;;;;;;15.07;3.50;;;;;;;;;;5381428;26;19996;-72
2024/04/20 07:12:29;;;;;;;15.60;3.08;;;;;;;;;;5382977;26;20012;-73
2024/04/20 07:14:56;;;;;;;16.50;2.88;;;;;;;;;;5373885;26;20430;-72
2024/04/20 07:17:23;;;;;;;8.38;2.50;;;;;;;;;;5371687;26;20468;-73
2024/04/20 07:19:50;;;;;;;15.88;3.22;;;;;;;;;;5373572;26;20384;-73
2024/04/20 07:22:17;;;;;;;14.77;3.25;;;;;;;;;;5372627;26;20315;-73
2024/04/20 07:24:44;;;;;;;13.50;2.65;;;;;;;;;;5373508;26;20004;-73
2024/04/20 07:27:10;;;;;;;11.05;2.70;;;;;;;;;;5357796;26;20028;-73
2024/04/20 07:29:38;;;;;;;9.63;2.55;;;;;;;;;;5372676;26;20552;-72
2024/04/20 07:32:05;;;;;;;18.30;3.67;;;;;;;;;;5371605;26;20000;-73
2024/04/20 07:34:32;;;;;;;16.23;3.03;;;;;;;;;;5373498;26;20001;-72
2024/04/20 07:36:59;;;;;;;13.07;2.83;;;;;;;;;;5372709;26;20454;-73
2024/04/20 07:39:26;;;;;;;11.98;2.90;;;;;;;;;;5372518;26;20000;-73
2024/04/20 07:41:53;;;;;;;11.55;2.47;;;;;;;;;;5371817;26;20001;-72
2024/04/20 07:44:21;;;;;;;9.23;3.45;;;;;;;;;;5372344;26;20016;-73
2024/04/20 07:47:02;;;;;;;13.65;2.67;;;;;;;;;;5372776;26;20004;-72
2024/04/20 07:49:36;;;;;;;;;;;;;;;;;;5364564;26;20580;-72
2024/04/20 07:52:04;;;;;;;9.15;2.70;;;;;;;;;;5362256;26;19937;-71
2024/04/20 07:54:31;;;;;;;13.27;3.65;;;;;;;;;;5364159;26;20019;-71
2024/04/20 07:56:58;;;;;;;11.05;3.58;;;;;;;;;;5364580;26;20000;-71
2024/04/20 07:59:25;;;;;;;9.63;3.10;;;;;;;;;;5365144;26;20032;-72
2024/04/20 08:01:51;;;;;;;13.73;4.05;;;;;;;;;;5364972;26;20051;-73
2024/04/20 08:04:19;;;;;;;14.32;4.07;;;;;;;;;;5353620;26;20012;-74
2024/04/20 08:06:46;;;;;;;15.10;4.07;;;;;;;;;;5353380;26;20047;-73
2024/04/20 08:09:13;;;;;;;8.10;3.17;;;;;;;;;;5376914;26;20316;-73
2024/04/20 08:11:42;;;;;;;19.13;4.63;;;;;;;;;;5355024;26;20016;-73
2024/04/20 08:14:09;;;;;;;10.85;4.10;;;;;;;;;;5368613;26;20055;-72
2024/04/20 08:16:36;;;;;;;10.52;3.83;;;;;;;;;;5377659;26;20056;-72
2024/04/20 08:19:04;;;;;;;11.82;4.10;;;;;;;;;;5365715;26;20001;-72
2024/04/20 08:21:31;;;;;;;12.60;3.75;;;;;;;;;;5386775;26;20047;-72
2024/04/20 08:23:58;;;;;;;7.80;3.28;;;;;;;;;;5385631;26;20018;-72
2024/04/20 08:26:26;;;;;;;8.05;3.50;;;;;;;;;;5356387;26;20026;-72
2024/04/20 08:28:53;;;;;;;7.97;3.30;;;;;;;;;;5353508;26;20127;-72
2024/04/20 08:31:20;;;;;;;9.57;3.20;;;;;;;;;;5374877;26;20507;-72
2024/04/20 08:33:47;;;;;;;9.38;3.40;;;;;;;;;;5375508;26;20000;-72
2024/04/20 08:36:14;;;;;;;8.65;3.65;;;;;;;;;;5375620;26;20319;-75
2024/04/20 08:38:41;;;;;;;8.48;3.25;;;;;;;;;;5376007;26;20173;-76
2024/04/20 08:41:12;;;;;;;9.07;3.25;;;;;;;;;;5361426;26;20019;-72
2024/04/20 08:43:42;;;;;;;11.90;3.78;;;;;;;;;;5371501;26;20028;-72
2024/04/20 08:46:13;;;;;;;9.25;3.55;;;;;;;;;;5368071;26;20008;-72
2024/04/20 08:48:45;;;;;;;7.22;3.00;;;;;;;;;;5356059;26;20009;-72
2024/04/20 08:51:20;;;;;;;7.35;3.45;;;;;;;;;;5354437;26;20008;-72
2024/04/20 08:53:49;;;;;;;10.35;3.92;;;;;;;;;;5361447;26;20459;-72
2024/04/20 08:56:18;;;;;;;6.55;3.30;;;;;;;;;;5357844;26;20042;-72
2024/04/20 08:58:45;;;;;;;6.78;3.30;;;;;;;;;;5332470;26;20015;-73
2024/04/20 09:01:16;;;;;;;7.18;3.42;;;;;;;;;;5335041;26;20430;-72
2024/04/20 09:03:44;;;;;;;12.73;3.30;;;;;;;;;;5343229;26;20016;-73
2024/04/20 09:06:11;;;;;;;6.00;3.40;;;;;;;;;;5349301;26;20001;-73
2024/04/20 09:08:40;;;;;;;12.70;3.80;;;;;;;;;;5350810;26;20012;-73
2024/04/20 09:11:07;;;;;;;10.02;3.65;;;;;;;;;;5352433;26;20001;-73
2024/04/20 09:13:34;;;;;;;5.38;2.85;;;;;;;;;;5376961;26;20450;-72
2024/04/20 09:16:01;;;;;;;5.07;2.70;;;;;;;;;;5347529;26;20762;-72
2024/04/20 09:18:29;;;;;;;6.57;3.22;;;;;;;;;;5364875;26;20011;-73
2024/04/20 09:20:57;;;;;;;5.80;2.78;;;;;;;;;;5356547;26;20027;-72
2024/04/20 09:23:24;;;;;;;9.35;3.17;;;;;;;;;;5380007;26;20031;-73
2024/04/20 09:25:52;;;;;;;7.05;2.92;;;;;;;;;;5375185;26;20000;-73
2024/04/20 09:28:27;;;;;;;7.28;3.20;;;;;;;;;;5370284;26;20138;-72
2024/04/20 09:30:55;;;;;;;7.18;3.30;;;;;;;;;;5374772;26;20004;-75
2024/04/20 09:33:23;;;;;;;4.78;3.15;;;;;;;;;;5367297;26;20019;-72
2024/04/20 09:35:51;;;;;;;8.07;3.33;;;;;;;;;;5341144;26;20017;-76
2024/04/20 09:38:18;;;;;;;10.45;3.15;;;;;;;;;;5306005;26;20004;-76
2024/04/20 09:40:52;;;;;;;6.25;2.92;;;;;;;;;;5374184;26;20588;-76
2024/04/20 09:43:22;;;;;;;7.97;3.25;;;;;;;;;;5342106;26;20015;-72
2024/04/20 09:45:50;;;;;;;9.07;3.35;;;;;;;;;;5375042;26;20073;-75
2024/04/20 09:48:26;;;;;;;5.22;2.58;;;;;;;;;;5374307;26;20012;-75
2024/04/20 09:51:04;;;;;;;10.52;2.85;;;;;;;;;;5353361;26;20626;-75
2024/04/20 09:53:35;;;;;;;9.98;3.20;;;;;;;;;;5374945;26;20011;-74
2024/04/20 09:56:03;;;;;;;8.02;3.25;;;;;;;;;;5374883;26;20024;-74
2024/04/20 09:58:31;;;;;;;5.28;2.92;;;;;;;;;;5339708;26;20009;-75
2024/04/20 10:01:01;;;;;;;5.93;2.90;;;;;;;;;;5339950;26;20244;-74
2024/04/20 10:03:30;;;;;;;6.47;2.92;;;;;;;;;;5374234;26;20012;-74
2024/04/20 10:05:57;;;;;;;6.50;2.72;;;;;;;;;;5374962;26;20325;-74
2024/04/20 10:08:26;;;;;;;8.50;2.60;;;;;;;;;;5373681;26;20020;-72
2024/04/20 10:10:54;;;;;;;8.02;2.95;;;;;;;;;;5374318;26;20004;-72
2024/04/20 10:13:21;;;;;;;;;;;;;;;;;;5374704;26;20014;-76
2024/04/20 10:15:50;;;;;;;5.97;2.50;;;;;;;;;;5350888;26;20683;-75
2024/04/20 10:18:17;;;;;;;;;;;;;;;;;;5344552;26;20011;-76
2024/04/20 10:20:44;;;;;;;5.88;2.00;;;;;;;;;;5374472;26;20371;-76
2024/04/20 10:23:16;;;;;;;5.28;2.10;;;;;;;;;;5372750;26;20015;-75
2024/04/20 10:25:49;;;;;;;5.60;2.30;;;;;;;;;;5371906;26;20376;-75
2024/04/20 10:28:27;;;;;;;3.30;1.95;;;;;;;;;;5356405;26;20000;-75
2024/04/20 10:30:59;;;;;;;6.28;1.90;;;;;;;;;;5350705;26;20333;-73
2024/04/20 10:33:27;;;;;;;7.35;2.55;;;;;;;;;;5339567;26;20001;-72
2024/04/20 10:35:58;;;;;;;4.53;2.05;;;;;;;;;;5339181;26;20005;-72
2024/04/20 10:38:26;;;;;;;5.35;1.75;;;;;;;;;;5339277;26;20012;-72
2024/04/20 10:40:53;;;;;;;6.15;2.00;;;;;;;;;;5339446;26;20428;-72
2024/04/20 10:43:25;;;;;;;9.88;2.90;;;;;;;;;;5322294;26;20336;-72
2024/04/20 10:46:03;;;;;;;5.30;2.25;;;;;;;;;;5335976;26;20004;-72
2024/04/20 10:48:41;;;;;;;7.72;2.10;;;;;;;;;;5338798;26;20079;-72
2024/04/20 10:51:12;;;;;;;5.28;1.77;;;;;;;;;;5339528;26;20019;-72
2024/04/20 10:53:42;;;;;;;5.97;2.33;;;;;;;;;;5332902;26;20016;-72
2024/04/20 10:56:09;;;;;;;7.68;2.28;;;;;;;;;;5307736;26;20497;-72
2024/04/20 10:58:42;;;;;;;7.20;2.20;;;;;;;;;;5325555;26;20005;-72
2024/04/20 11:01:10;;;;;;;6.35;2.20;;;;;;;;;;5340124;26;20036;-72
2024/04/20 11:03:38;;;;;;;5.35;2.17;;;;;;;;;;5340076;26;20016;-72
2024/04/20 11:06:05;;;;;;;6.38;2.20;;;;;;;;;;5318988;26;19996;-72
2024/04/20 11:08:32;;;;;;;5.00;2.33;;;;;;;;;;5340566;26;20445;-72
2024/04/20 11:11:04;;;;;;;5.03;2.25;;;;;;;;;;5327369;26;20001;-72
2024/04/20 11:13:32;;;;;;;7.07;2.42;;;;;;;;;;5343333;26;20001;-72
2024/04/20 11:15:59;;;;;;;5.05;1.90;;;;;;;;;;5375124;26;20032;-71
2024/04/20 11:18:26;;;;;;;7.50;2.40;;;;;;;;;;5370951;26;20004;-71
2024/04/20 11:20:53;;;;;;;7.28;2.58;;;;;;;;;;5340448;26;20009;-72
2024/04/20 11:23:21;;;;;;;8.35;2.72;;;;;;;;;;5365747;26;20011;-71
2024/04/20 11:25:55;;;;;;;5.18;1.92;;;;;;;;;;5377216;26;20033;-71
2024/04/20 11:28:23;;;;;;;7.35;2.00;;;;;;;;;;5375799;26;20033;-74
2024/04/20 11:30:51;;;;;;;4.45;2.00;;;;;;;;;;5371048;26;20019;-72
2024/04/20 11:33:18;;;;;;;5.75;2.10;;;;;;;;;;5372780;26;20001;-72
2024/04/20 11:35:47;;;;;;;5.25;2.50;;;;;;;;;;5375807;26;20023;-72
2024/04/20 11:38:15;;;;;;;10.35;2.05;;;;;;;;;;5377365;26;20094;-72
2024/04/20 11:40:49;;;;;;;4.63;2.05;;;;;;;;;;5376927;26;20010;-72
2024/04/20 11:43:20;;;;;;;4.07;1.98;;;;;;;;;;5365660;26;20005;-72
2024/04/20 11:45:50;;;;;;;6.43;1.83;;;;;;;;;;5368150;26;20442;-72
2024/04/20 11:48:22;;;;;;;4.85;1.95;;;;;;;;;;5376079;26;20016;-71
2024/04/20 11:51:02;;;;;;;6.93;1.80;;;;;;;;;;5355130;26;20432;-71
2024/04/20 11:56:17;;;;;;;4.55;2.05;;;;;;;;;;5375411;26;20004;-72
2024/04/20 11:58:49;;;;;;;8.27;2.38;;;;;;;;;;5354808;26;20430;-72
2024/04/20 12:01:17;;;;;;;5.32;2.50;;;;;;;;;;5377030;26;20020;-72
2024/04/20 12:03:45;;;;;;;6.10;2.00;;;;;;;;;;5376041;26;20008;-72
2024/04/20 12:06:12;;;;;;;6.32;1.90;;;;;;;;;;5375543;26;20055;-72
2024/04/20 12:08:43;;;;;;;6.35;1.90;;;;;;;;;;5376276;26;20331;-72
2024/04/20 12:11:10;;;;;;;4.35;2.00;;;;;;;;;;5375712;26;20008;-72
2024/04/20 12:13:37;;;;;;;5.80;1.97;;;;;;;;;;5376204;26;20032;-72
2024/04/20 12:16:05;;;;;;;4.70;1.70;;;;;;;;;;5375749;26;20000;-72
2024/04/20 12:18:32;;;;;;;6.75;1.80;;;;;;;;;;5376394;26;20077;-72
2024/04/20 12:21:02;;;;;;;6.70;2.00;;;;;;;;;;5363435;26;20016;-72
2024/04/20 12:23:29;;;;;;;6.30;1.80;;;;;;;;;;5372408;26;20047;-72
2024/04/20 12:25:56;;;;;;;6.63;1.92;;;;;;;;;;5375559;26;20012;-72
2024/04/20 12:28:22;;;;;;;4.35;1.77;;;;;;;;;;5375756;26;20012;-72
2024/04/20 12:30:49;;;;;;;6.90;1.83;;;;;;;;;;5375544;26;20000;-72
2024/04/20 12:33:16;;;;;;;5.32;1.70;;;;;;;;;;5375844;26;20413;-72
2024/04/20 12:35:43;;;;;;;6.35;1.90;;;;;;;;;;5375792;26;20004;-72
2024/04/20 12:38:10;;;;;;;4.55;1.73;;;;;;;;;;5375671;26;20001;-72
2024/04/20 12:40:37;;;;;;;5.07;2.20;;;;;;;;;;5375913;26;20846;-72
2024/04/20 12:43:03;;;;;;;6.72;2.30;;;;;;;;;;5376402;26;20008;-72
2024/04/20 12:45:30;;;;;;;6.55;2.00;;;;;;;;;;5370391;26;20011;-72
2024/04/20 12:47:58;;;;;;;5.15;1.80;;;;;;;;;;5376036;26;20019;-72
2024/04/20 12:50:25;;;;;;;8.27;1.83;;;;;;;;;;5371152;26;20015;-72
2024/04/20 12:52:52;;;;;;;8.35;2.15;;;;;;;;;;5375891;26;20384;-72
2024/04/20 12:55:21;;;;;;;6.60;1.98;;;;;;;;;;5367460;26;20032;-72
2024/04/20 12:57:48;;;;;;;7.78;2.20;;;;;;;;;;5372138;26;20012;-72
2024/04/20 13:00:16;;;;;;;5.72;1.65;;;;;;;;;;5372224;26;20387;-72
2024/04/20 13:02:44;;;;;;;4.20;2.00;;;;;;;;;;5362375;26;20420;-72
2024/04/20 13:05:12;;;;;;;3.63;1.60;;;;;;;;;;5373719;26;20001;-72
2024/04/20 13:07:39;;;;;;;3.92;1.85;;;;;;;;;;5373432;26;19996;-72
2024/04/20 13:10:06;;;;;;;5.43;1.90;;;;;;;;;;5349625;26;20005;-72
2024/04/20 13:12:34;;;;;;;4.70;1.70;;;;;;;;;;5372480;26;20443;-72
2024/04/20 13:15:00;;;;;;;5.20;1.95;;;;;;;;;;5371683;26;20485;-72
2024/04/20 13:17:30;;;;;;;7.38;2.10;;;;;;;;;;5372290;26;20011;-72
2024/04/20 13:19:59;;;;;;;7.43;2.17;;;;;;;;;;5396790;26;20455;-72
2024/04/20 13:22:26;;;;;;;8.88;2.22;;;;;;;;;;5353846;26;20001;-72
2024/04/20 13:24:54;;;;;;;7.10;2.33;;;;;;;;;;5372479;26;20125;-72
2024/04/20 13:27:23;;;;;;;9.45;3.17;;;;;;;;;;5358977;26;20059;-72
2024/04/20 13:29:49;;;;;;;15.02;6.97;;;;;;;;;;5388971;26;19999;-71
2024/04/20 13:32:16;;;;;;;10.70;3.75;;;;;;;;;;5405873;26;20003;-74
2024/04/20 13:34:43;;;;;;;9.52;2.50;;;;;;;;;;5381820;26;20004;-73
2024/04/20 13:37:11;;;;;;;8.02;2.60;;;;;;;;;;5355773;26;20443;-75
2024/04/20 13:39:39;;;;;;;7.63;2.20;;;;;;;;;;5373010;26;20018;-76
2024/04/20 13:42:06;;;;;;;9.57;3.05;;;;;;;;;;5351820;26;20000;-72
2024/04/20 13:44:33;;;;;;;7.50;2.40;;;;;;;;;;5384400;26;20000;-73
2024/04/20 13:47:00;;;;;;;12.25;2.70;;;;;;;;;;5360214;26;20011;-73
2024/04/20 13:49:28;;;;;;;7.70;2.42;;;;;;;;;;5369294;26;20012;-74
2024/04/20 13:51:59;;;;;;;7.13;2.47;;;;;;;;;;5376645;26;20110;-73
2024/04/20 13:54:26;;;;;;;7.78;2.58;;;;;;;;;;5375171;26;20012;-73
2024/04/20 13:56:53;;;;;;;12.45;3.03;;;;;;;;;;5358565;26;20432;-74
2024/04/20 13:59:20;;;;;;;7.13;2.63;;;;;;;;;;5347019;26;20020;-73
2024/04/20 14:01:48;;;;;;;10.63;3.17;;;;;;;;;;5376273;26;20724;-72
2024/04/20 14:04:15;;;;;;;7.85;2.65;;;;;;;;;;5375969;26;20015;-74
2024/04/20 14:06:42;;;;;;;11.32;2.90;;;;;;;;;;5349242;26;20283;-73
2024/04/20 14:09:09;;;;;;;14.15;3.35;;;;;;;;;;5409292;26;20003;-73
2024/04/20 14:11:36;;;;;;;8.63;2.70;;;;;;;;;;5409849;26;20027;-74
2024/04/20 14:14:03;;;;;;;11.85;2.67;;;;;;;;;;5387736;26;20102;-73
2024/04/20 14:16:30;;;;;;;10.23;3.03;;;;;;;;;;5371355;26;20024;-73
2024/04/20 14:18:57;;;;;;;11.07;2.72;;;;;;;;;;5376544;26;20430;-73
2024/04/20 14:21:24;;;;;;;12.07;3.25;;;;;;;;;;5356855;26;20016;-73
2024/04/20 14:23:51;;;;;;;7.93;2.72;;;;;;;;;;5372910;26;20000;-73
2024/04/20 14:26:18;;;;;;;11.00;2.65;;;;;;;;;;5374771;26;20000;-73
2024/04/20 14:28:45;;;;;;;9.55;2.70;;;;;;;;;;5376083;26;20000;-73
2024/04/20 14:31:12;;;;;;;7.68;2.58;;;;;;;;;;5375488;26;20012;-75
2024/04/20 14:33:40;;;;;;;11.60;3.42;;;;;;;;;;5317564;26;20001;-72
2024/04/20 14:36:15;;;;;;;9.20;3.05;;;;;;;;;;5359519;26;20213;-72
2024/04/20 14:38:43;;;;;;;13.40;3.13;;;;;;;;;;5347662;26;20012;-72
2024/04/20 14:41:09;;;;;;;7.80;2.70;;;;;;;;;;5368432;26;20336;-71